VOE5XZ LFBO-LFKB
Flight info
| Callsign | VOE5XZ |
|---|---|
| Flight time | N/A |
| Altitude | 33000 |
| Route | AMOLO DCT DEGOL DCT FJR DCT ROVOT DCT PADKO DCT DIVUL P856 NIRDO |
| Aircraft | A320/M-SDFGHIJ1RWY/LB1 |
Departure
| Time | 2026-04-28 18:48 |
|---|---|
| Airport | Toulouse-Blagnac Airport (LFBO) |
Arrival
| Time | N/A |
|---|---|
| Airport | Bastia-Poretta International airport (LFKB) |
| Time | Latitude | Longitude | Altitude | Speed | Heading |
|---|---|---|---|---|---|
| 2026-04-28 18:25 | 43.63036 | 1.37246 | 486 ft | 0 kts | 53° |
| 2026-04-28 18:40 | 43.63034 | 1.37242 | 504 ft | 3 kts | 53° |
| 2026-04-28 18:40 | 43.63018 | 1.37213 | 504 ft | 4 kts | 53° |
| 2026-04-28 18:40 | 43.63005 | 1.37188 | 481 ft | 3 kts | 52° |
| 2026-04-28 18:41 | 43.62988 | 1.37169 | 485 ft | 4 kts | 355° |
| 2026-04-28 18:41 | 43.62967 | 1.37182 | 485 ft | 4 kts | 322° |
| 2026-04-28 18:41 | 43.62957 | 1.37192 | 488 ft | 0 kts | 322° |
| 2026-04-28 18:43 | 43.62971 | 1.37178 | 486 ft | 5 kts | 322° |
| 2026-04-28 18:43 | 43.63005 | 1.37139 | 486 ft | 8 kts | 318° |
| 2026-04-28 18:44 | 43.63017 | 1.37065 | 484 ft | 10 kts | 238° |
| 2026-04-28 18:44 | 43.62980 | 1.36855 | 486 ft | 17 kts | 326° |
| 2026-04-28 18:44 | 43.63087 | 1.36750 | 489 ft | 21 kts | 322° |
| 2026-04-28 18:45 | 43.63196 | 1.36634 | 486 ft | 19 kts | 323° |
| 2026-04-28 18:45 | 43.63294 | 1.36531 | 486 ft | 17 kts | 323° |
| 2026-04-28 18:45 | 43.63383 | 1.36441 | 492 ft | 15 kts | 323° |
| 2026-04-28 18:45 | 43.63462 | 1.36360 | 489 ft | 13 kts | 323° |
| 2026-04-28 18:46 | 43.63532 | 1.36289 | 485 ft | 12 kts | 323° |
| 2026-04-28 18:46 | 43.63595 | 1.36224 | 488 ft | 11 kts | 323° |
| 2026-04-28 18:46 | 43.63658 | 1.36158 | 488 ft | 12 kts | 323° |
| 2026-04-28 18:46 | 43.63743 | 1.36069 | 489 ft | 18 kts | 322° |
| 2026-04-28 18:47 | 43.63813 | 1.35953 | 493 ft | 15 kts | 271° |
| 2026-04-28 18:47 | 43.63766 | 1.35841 | 487 ft | 13 kts | 233° |
| 2026-04-28 18:47 | 43.63701 | 1.35805 | 494 ft | 12 kts | 153° |
| 2026-04-28 18:47 | 43.63536 | 1.35981 | 487 ft | 61 kts | 142° |
| 2026-04-28 18:48 | 43.63018 | 1.36520 | 487 ft | 122 kts | 144° |
| 2026-04-28 18:48 | 43.62244 | 1.37385 | 637 ft | 153 kts | 130° |
| 2026-04-28 18:48 | 43.61352 | 1.38155 | 1192 ft | 152 kts | 130° |
| 2026-04-28 18:48 | 43.60451 | 1.38948 | 1727 ft | 154 kts | 125° |
| 2026-04-28 18:49 | 43.59593 | 1.39816 | 2290 ft | 153 kts | 124° |
| 2026-04-28 18:49 | 43.59306 | 1.40114 | 2482 ft | 153 kts | 125° |
| 2026-04-28 18:49 | 43.57894 | 1.41572 | 3226 ft | 158 kts | 126° |
| 2026-04-28 18:49 | 43.56975 | 1.42560 | 3445 ft | 178 kts | 126° |
| 2026-04-28 18:50 | 43.55965 | 1.43705 | 3596 ft | 199 kts | 126° |
| 2026-04-28 18:50 | 43.54848 | 1.44986 | 3744 ft | 219 kts | 127° |
| 2026-04-28 18:50 | 43.53614 | 1.46393 | 3926 ft | 242 kts | 128° |
| 2026-04-28 18:50 | 43.52337 | 1.48028 | 4374 ft | 253 kts | 114° |
| 2026-04-28 18:51 | 43.51896 | 1.50275 | 5259 ft | 246 kts | 72° |
| 2026-04-28 18:51 | 43.52281 | 1.51721 | 5801 ft | 244 kts | 45° |
| 2026-04-28 18:51 | 43.53509 | 1.53373 | 6371 ft | 255 kts | 27° |
| 2026-04-28 18:51 | 43.55030 | 1.54743 | 6686 ft | 273 kts | 21° |
| 2026-04-28 18:52 | 43.56704 | 1.56108 | 7095 ft | 285 kts | 20° |
| 2026-04-28 18:52 | 43.58437 | 1.57494 | 7473 ft | 293 kts | 19° |
| 2026-04-28 18:52 | 43.60128 | 1.58994 | 7999 ft | 296 kts | 24° |
| 2026-04-28 18:52 | 43.61799 | 1.60648 | 8723 ft | 294 kts | 23° |
| 2026-04-28 18:53 | 43.63413 | 1.62346 | 9505 ft | 290 kts | 23° |
| 2026-04-28 18:53 | 43.65019 | 1.64065 | 10020 ft | 297 kts | 27° |
| 2026-04-28 18:53 | 43.66691 | 1.65855 | 10233 ft | 313 kts | 26° |
| 2026-04-28 18:53 | 43.68466 | 1.67734 | 10369 ft | 329 kts | 26° |
| 2026-04-28 18:54 | 43.70332 | 1.69690 | 10498 ft | 343 kts | 25° |
| 2026-04-28 18:54 | 43.72261 | 1.71675 | 10786 ft | 349 kts | 24° |
| 2026-04-28 18:54 | 43.74238 | 1.73655 | 11133 ft | 352 kts | 24° |
| 2026-04-28 18:54 | 43.76255 | 1.75569 | 11471 ft | 352 kts | 15° |
| 2026-04-28 18:55 | 43.78389 | 1.77295 | 11384 ft | 360 kts | 14° |
| 2026-04-28 18:55 | 43.80543 | 1.79123 | 11279 ft | 365 kts | 26° |
| 2026-04-28 18:55 | 43.82293 | 1.81675 | 11440 ft | 370 kts | 46° |
| 2026-04-28 18:55 | 43.83374 | 1.84911 | 11608 ft | 374 kts | 65° |
| 2026-04-28 18:56 | 43.83749 | 1.88466 | 11975 ft | 371 kts | 75° |
| 2026-04-28 18:56 | 43.83808 | 1.92012 | 12465 ft | 367 kts | 79° |
| 2026-04-28 18:56 | 43.83728 | 1.95538 | 12900 ft | 365 kts | 82° |
| 2026-04-28 18:56 | 43.83607 | 1.99007 | 13279 ft | 365 kts | 82° |
| 2026-04-28 18:57 | 43.83501 | 2.02527 | 13630 ft | 367 kts | 81° |
| 2026-04-28 18:57 | 43.83431 | 2.06064 | 13939 ft | 369 kts | 80° |
| 2026-04-28 18:57 | 43.83400 | 2.09621 | 14222 ft | 371 kts | 79° |
| 2026-04-28 18:57 | 43.83397 | 2.13194 | 14494 ft | 373 kts | 79° |
| 2026-04-28 18:58 | 43.83408 | 2.16844 | 14774 ft | 375 kts | 79° |
| 2026-04-28 18:58 | 43.83425 | 2.20416 | 15034 ft | 377 kts | 79° |
| 2026-04-28 18:58 | 43.83438 | 2.23964 | 15313 ft | 379 kts | 79° |
| 2026-04-28 18:58 | 43.83443 | 2.27331 | 15533 ft | 380 kts | 78° |
| 2026-04-28 18:59 | 43.83441 | 2.31079 | 15959 ft | 377 kts | 77° |
| 2026-04-28 18:59 | 43.83441 | 2.34708 | 16221 ft | 378 kts | 78° |
| 2026-04-28 18:59 | 43.83429 | 2.38376 | 16388 ft | 382 kts | 79° |
| 2026-04-28 18:59 | 43.83417 | 2.42065 | 16593 ft | 384 kts | 79° |
| 2026-04-28 19:00 | 43.83406 | 2.45778 | 16807 ft | 387 kts | 79° |
| 2026-04-28 19:00 | 43.83396 | 2.49518 | 17027 ft | 389 kts | 79° |
| 2026-04-28 19:00 | 43.83389 | 2.53270 | 17255 ft | 390 kts | 79° |
| 2026-04-28 19:00 | 43.83339 | 2.57031 | 17412 ft | 392 kts | 87° |
| 2026-04-28 19:01 | 43.82713 | 2.60683 | 17605 ft | 390 kts | 99° |
| 2026-04-28 19:01 | 43.81912 | 2.64264 | 17960 ft | 388 kts | 94° |